M/T Marvel — V7OZ3 — position and weather

sailwx.info

Track history (hours):
 
Tides and Currents Weather Stations Pressure Air Temp Water Temp Dewpoint Dewpoint Depression Visibility Wind Speed Wind Dir Waves Ship Positions

M/T Marvel

Last reported at 2015-May-24 05:06 UTC. Time now 2015-May-25 23:41 UTC.
Position N 22°20' E 114°06'.

Length 183 m; draft 10.9 m.

Type: Tanker. MMSI: 538003191.

Date/timePositionNaut miles runAvg speedWind from/ knotsBaromVisibWave heightAir tempDewpointWater temp
2015-May-24 05:06N 22°20' E 114°06'2 3.9
2015-May-24 04:33N 22°17' E 114°06'  
2015-May-18 15:23N 35°02' E 139°37'1012.3
2015-May-18 14:33N 35°10' E 139°45'1111.0
2015-May-18 13:33N 35°21' E 139°42'10 9.8
2015-May-18 12:33N 35°30' E 139°47'2 0.3
2015-May-18 06:23N 35°31' E 139°46'0 0.0
2015-May-18 05:17N 35°31' E 139°46'0 0.0
2015-May-18 00:23N 35°31' E 139°46'0 0.0
2015-May-17 23:23N 35°31' E 139°46'0 0.0
2015-May-17 22:23N 35°31' E 139°46'0 0.0
2015-May-17 21:29N 35°31' E 139°46'0 0.0
2015-May-17 19:29N 35°31' E 139°46'0 0.0
2015-May-17 18:23N 35°31' E 139°46'0 0.0
2015-May-17 17:29N 35°31' E 139°46'0 0.0
2015-May-17 16:23N 35°31' E 139°46'0 0.0
2015-May-17 15:17N 35°31' E 139°46'0 0.0
2015-May-17 14:11N 35°31' E 139°46'0 0.0
2015-May-17 13:29N 35°31' E 139°46'0 0.0
2015-May-17 11:29N 35°31' E 139°46'0 0.0
2015-May-17 10:29N 35°31' E 139°46'0 0.0
2015-May-17 09:29N 35°31' E 139°46'0 0.0
2015-May-17 08:20N 35°31' E 139°46'0 0.0
2015-May-17 07:29N 35°31' E 139°46'0 0.0
2015-May-17 06:32N 35°31' E 139°46'0 0.0
2015-May-17 05:29N 35°31' E 139°46'0 0.0
2015-May-17 04:29N 35°31' E 139°46'0 0.0
2015-May-17 03:29N 35°31' E 139°46'0 0.0
2015-May-17 02:29N 35°31' E 139°46'0 0.0
2015-May-17 01:29N 35°31' E 139°46'0 0.3
2015-May-17 00:33N 35°31' E 139°46'3 3.2
2015-May-16 23:31N 35°28' E 139°47'0 0.0
2015-May-16 22:25N 35°28' E 139°47'0 0.0
2015-May-16 21:31N 35°28' E 139°47'0 0.0
2015-May-16 20:31N 35°28' E 139°47'0 0.0
2015-May-16 19:28N 35°28' E 139°47'0 0.0
2015-May-16 18:31N 35°28' E 139°47'0 0.0
2015-May-16 17:28N 35°28' E 139°47'0 0.0
2015-May-16 16:31N 35°28' E 139°47'0 0.0
2015-May-16 15:28N 35°28' E 139°47'0 0.0
2015-May-16 14:25N 35°28' E 139°47'0 0.0
2015-May-16 13:31N 35°28' E 139°47'0 0.0
2015-May-16 12:31N 35°28' E 139°47'0 0.0
2015-May-16 11:28N 35°28' E 139°47'0 0.0
2015-May-16 10:31N 35°28' E 139°47'0 0.0
2015-May-16 09:31N 35°28' E 139°47'0 0.0
2015-May-16 08:31N 35°28' E 139°47'0 0.0
2015-May-16 07:31N 35°28' E 139°47'0 0.0
2015-May-16 06:31N 35°28' E 139°47'0 0.0
2015-May-16 05:31N 35°28' E 139°47'0 0.0
2015-May-16 04:31N 35°28' E 139°47'0 0.0
2015-May-16 03:31N 35°28' E 139°47'0 0.1
2015-May-16 02:31N 35°28' E 139°47'0 0.0
2015-May-16 01:25N 35°28' E 139°47'0 0.1
2015-May-16 00:25N 35°28' E 139°47'0 0.0
2015-May-15 23:31N 35°28' E 139°47'0 0.1
2015-May-15 22:31N 35°28' E 139°47'0 0.1
2015-May-15 21:31N 35°28' E 139°47'0 0.1
2015-May-15 20:31N 35°28' E 139°47'0 0.0
2015-May-15 19:31N 35°28' E 139°47'0 0.0
2015-May-15 18:31N 35°28' E 139°47'0 0.0
2015-May-15 17:31N 35°28' E 139°47'0 0.0
2015-May-15 16:28N 35°28' E 139°47'0 0.0
2015-May-15 15:25N 35°28' E 139°47'0 0.0
2015-May-15 14:31N 35°28' E 139°47'0 0.0
2015-May-15 13:31N 35°28' E 139°47'0 0.0
2015-May-15 12:31N 35°28' E 139°47'0 0.0
2015-May-15 11:31N 35°28' E 139°47'0 0.0
2015-May-15 10:28N 35°28' E 139°47'0 0.1
2015-May-15 09:31N 35°28' E 139°47'0 0.0
2015-May-15 08:31N 35°28' E 139°47'0 0.0
2015-May-15 07:31N 35°28' E 139°47'0 0.0
2015-May-15 06:31N 35°28' E 139°47'0 0.0
2015-May-15 05:31N 35°28' E 139°47'0 0.0
2015-May-15 04:31N 35°28' E 139°47'0 0.1
2015-May-15 03:31N 35°28' E 139°47'0 0.1
2015-May-15 02:28N 35°28' E 139°47'0 0.0
2015-May-15 01:25N 35°28' E 139°47'0 0.1
2015-May-15 00:34N 35°28' E 139°47'10 9.5
2015-May-14 23:30N 35°18' E 139°44'1010.2
2015-May-14 22:33N 35°08' E 139°46'9 8.8
2015-May-14 21:33N 35°02' E 139°38'  
Track history (hours):
 
Tides and Currents Weather Stations Pressure Air Temp Water Temp Dewpoint Dewpoint Depression Visibility Wind Speed Wind Dir Waves Ship Positions

M/T Marvel

Last reported at 2015-May-24 05:06 UTC. Time now 2015-May-25 23:41 UTC.
Position N 22°20' E 114°06'.

Length 183 m; draft 10.9 m.

Type: Tanker. MMSI: 538003191.

Date/timePositionNaut miles runAvg speedWind from/ knotsBaromVisibWave heightAir tempDewpointWater temp
2015-May-24 05:06N 22°20' E 114°06'2 3.9
2015-May-24 04:33N 22°17' E 114°06'  
2015-May-18 15:23N 35°02' E 139°37'1012.3
2015-May-18 14:33N 35°10' E 139°45'1111.0
2015-May-18 13:33N 35°21' E 139°42'10 9.8
2015-May-18 12:33N 35°30' E 139°47'2 0.3
2015-May-18 06:23N 35°31' E 139°46'0 0.0
2015-May-18 05:17N 35°31' E 139°46'0 0.0
2015-May-18 00:23N 35°31' E 139°46'0 0.0
2015-May-17 23:23N 35°31' E 139°46'0 0.0
2015-May-17 22:23N 35°31' E 139°46'0 0.0
2015-May-17 21:29N 35°31' E 139°46'0 0.0
2015-May-17 19:29N 35°31' E 139°46'0 0.0
2015-May-17 18:23N 35°31' E 139°46'0 0.0
2015-May-17 17:29N 35°31' E 139°46'0 0.0
2015-May-17 16:23N 35°31' E 139°46'0 0.0
2015-May-17 15:17N 35°31' E 139°46'0 0.0
2015-May-17 14:11N 35°31' E 139°46'0 0.0
2015-May-17 13:29N 35°31' E 139°46'0 0.0
2015-May-17 11:29N 35°31' E 139°46'0 0.0
2015-May-17 10:29N 35°31' E 139°46'0 0.0
2015-May-17 09:29N 35°31' E 139°46'0 0.0
2015-May-17 08:20N 35°31' E 139°46'0 0.0
2015-May-17 07:29N 35°31' E 139°46'0 0.0
2015-May-17 06:32N 35°31' E 139°46'0 0.0
2015-May-17 05:29N 35°31' E 139°46'0 0.0
2015-May-17 04:29N 35°31' E 139°46'0 0.0
2015-May-17 03:29N 35°31' E 139°46'0 0.0
2015-May-17 02:29N 35°31' E 139°46'0 0.0
2015-May-17 01:29N 35°31' E 139°46'0 0.3
2015-May-17 00:33N 35°31' E 139°46'3 3.2
2015-May-16 23:31N 35°28' E 139°47'0 0.0
2015-May-16 22:25N 35°28' E 139°47'0 0.0
2015-May-16 21:31N 35°28' E 139°47'0 0.0
2015-May-16 20:31N 35°28' E 139°47'0 0.0
2015-May-16 19:28N 35°28' E 139°47'0 0.0
2015-May-16 18:31N 35°28' E 139°47'0 0.0
2015-May-16 17:28N 35°28' E 139°47'0 0.0
2015-May-16 16:31N 35°28' E 139°47'0 0.0
2015-May-16 15:28N 35°28' E 139°47'0 0.0
2015-May-16 14:25N 35°28' E 139°47'0 0.0
2015-May-16 13:31N 35°28' E 139°47'0 0.0
2015-May-16 12:31N 35°28' E 139°47'0 0.0
2015-May-16 11:28N 35°28' E 139°47'0 0.0
2015-May-16 10:31N 35°28' E 139°47'0 0.0
2015-May-16 09:31N 35°28' E 139°47'0 0.0
2015-May-16 08:31N 35°28' E 139°47'0 0.0
2015-May-16 07:31N 35°28' E 139°47'0 0.0
2015-May-16 06:31N 35°28' E 139°47'0 0.0
2015-May-16 05:31N 35°28' E 139°47'0 0.0
2015-May-16 04:31N 35°28' E 139°47'0 0.0
2015-May-16 03:31N 35°28' E 139°47'0 0.1
2015-May-16 02:31N 35°28' E 139°47'0 0.0
2015-May-16 01:25N 35°28' E 139°47'0 0.1
2015-May-16 00:25N 35°28' E 139°47'0 0.0
2015-May-15 23:31N 35°28' E 139°47'0 0.1
2015-May-15 22:31N 35°28' E 139°47'0 0.1
2015-May-15 21:31N 35°28' E 139°47'0 0.1
2015-May-15 20:31N 35°28' E 139°47'0 0.0
2015-May-15 19:31N 35°28' E 139°47'0 0.0
2015-May-15 18:31N 35°28' E 139°47'0 0.0
2015-May-15 17:31N 35°28' E 139°47'0 0.0
2015-May-15 16:28N 35°28' E 139°47'0 0.0
2015-May-15 15:25N 35°28' E 139°47'0 0.0
2015-May-15 14:31N 35°28' E 139°47'0 0.0
2015-May-15 13:31N 35°28' E 139°47'0 0.0
2015-May-15 12:31N 35°28' E 139°47'0 0.0
2015-May-15 11:31N 35°28' E 139°47'0 0.0
2015-May-15 10:28N 35°28' E 139°47'0 0.1
2015-May-15 09:31N 35°28' E 139°47'0 0.0
2015-May-15 08:31N 35°28' E 139°47'0 0.0
2015-May-15 07:31N 35°28' E 139°47'0 0.0
2015-May-15 06:31N 35°28' E 139°47'0 0.0
2015-May-15 05:31N 35°28' E 139°47'0 0.0
2015-May-15 04:31N 35°28' E 139°47'0 0.1
2015-May-15 03:31N 35°28' E 139°47'0 0.1
2015-May-15 02:28N 35°28' E 139°47'0 0.0
2015-May-15 01:25N 35°28' E 139°47'0 0.1
2015-May-15 00:34N 35°28' E 139°47'10 9.5
2015-May-14 23:30N 35°18' E 139°44'1010.2
2015-May-14 22:33N 35°08' E 139°46'9 8.8
2015-May-14 21:33N 35°02' E 139°38'  

Dump ship's entire track history